createdAt,value
2023-02-19T00:01:46.124Z,97438.34
2023-02-19T00:04:32.192Z,97429.00
2023-02-19T00:07:17.464Z,97429.44
2023-02-19T00:10:03.200Z,97431.50
2023-02-19T00:12:48.531Z,97438.41
2023-02-19T00:15:34.100Z,97432.09
2023-02-19T00:18:19.250Z,97424.16
2023-02-19T00:21:04.875Z,97418.88
2023-02-19T00:23:52.398Z,97423.56
2023-02-19T00:26:39.977Z,97429.88
2023-02-19T00:29:25.607Z,97418.69
2023-02-19T00:32:10.949Z,97413.63
2023-02-19T00:34:56.192Z,97413.84
2023-02-19T00:37:41.600Z,97402.44
2023-02-19T00:40:27.183Z,97414.22
2023-02-19T00:43:12.680Z,97404.72
2023-02-19T00:45:57.926Z,97408.38
2023-02-19T00:48:43.321Z,97400.44
2023-02-19T00:51:34.472Z,97403.09
2023-02-19T00:54:22.536Z,97402.25
2023-02-19T00:57:07.913Z,97398.00
2023-02-19T00:59:53.215Z,97404.09
2023-02-19T01:02:38.655Z,97394.56
2023-02-19T01:05:24.085Z,97390.88
2023-02-19T01:08:09.539Z,97380.91
2023-02-19T01:10:55.004Z,97376.63
2023-02-19T01:13:41.628Z,97374.78
2023-02-19T01:16:27.857Z,97380.09
2023-02-19T01:19:13.788Z,97375.63
2023-02-19T01:21:59.342Z,97378.25
2023-02-19T01:24:44.758Z,97374.56
2023-02-19T01:27:30.220Z,97367.69
2023-02-19T01:30:15.588Z,97361.34
2023-02-19T01:33:01.070Z,97368.47
2023-02-19T01:35:47.058Z,97351.81
2023-02-19T01:38:32.631Z,97351.41
2023-02-19T01:41:24.263Z,97335.09
2023-02-19T01:44:15.744Z,97336.13
2023-02-19T01:47:01.562Z,97337.94
2023-02-19T01:49:55.867Z,97330.25
2023-02-19T01:52:41.749Z,97325.97
2023-02-19T01:55:27.212Z,97318.03
2023-02-19T01:58:12.836Z,97304.81
2023-02-19T02:01:01.201Z,97304.59
2023-02-19T02:03:49.514Z,97302.53
2023-02-19T02:06:57.668Z,97297.25
2023-02-19T02:10:01.738Z,97297.25
2023-02-19T02:12:48.734Z,97278.97
2023-02-19T02:15:51.695Z,97289.56
2023-02-19T02:18:54.052Z,97275.31
2023-02-19T02:22:07.298Z,97281.63
2023-02-19T02:25:01.913Z,97274.28
2023-02-19T02:28:09.318Z,97259.19
2023-02-19T02:30:59.498Z,97260.47
2023-02-19T02:34:01.372Z,97240.31
2023-02-19T02:36:52.919Z,97247.22
2023-02-19T02:39:40.374Z,97234.25
2023-02-19T02:42:28.509Z,97244.00
2023-02-19T02:45:35.825Z,97241.97
2023-02-19T02:48:56.861Z,97222.66
2023-02-19T02:51:49.390Z,97216.41
2023-02-19T02:54:57.976Z,97217.09
2023-02-19T02:57:43.454Z,97221.41
2023-02-19T03:00:49.661Z,97202.53
2023-02-19T03:03:38.520Z,97195.88
2023-02-19T03:06:29.288Z,97197.13
2023-02-19T03:09:22.388Z,97188.59
2023-02-19T03:12:34.068Z,97199.63
2023-02-19T03:15:39.709Z,97196.38
2023-02-19T03:18:48.290Z,97196.81
2023-02-19T03:21:38.359Z,97195.22
2023-02-19T03:24:56.415Z,97202.31
2023-02-19T03:27:44.685Z,97201.53
2023-02-19T03:30:36.222Z,97190.13
2023-02-19T03:33:26.481Z,97199.06
2023-02-19T03:36:15.699Z,97190.34
2023-02-19T03:39:07.441Z,97191.81
2023-02-19T03:42:05.977Z,97189.59
2023-02-19T03:45:22.037Z,97177.88
2023-02-19T03:48:25.287Z,97185.44
2023-02-19T03:51:26.052Z,97157.81
2023-02-19T03:54:15.459Z,97142.63
2023-02-19T03:57:11.711Z,97148.81
2023-02-19T04:00:11.858Z,97132.78
2023-02-19T04:03:20.945Z,97126.31
2023-02-19T04:06:13.991Z,97141.56
2023-02-19T04:09:03.282Z,97159.50
2023-02-19T04:11:51.644Z,97155.22
2023-02-19T04:15:04.318Z,97157.88
2023-02-19T04:18:03.257Z,97165.94
2023-02-19T04:20:49.006Z,97150.69
2023-02-19T04:23:39.869Z,97144.31
2023-02-19T04:26:25.344Z,97140.78
2023-02-19T04:29:10.760Z,97145.44
2023-02-19T04:31:56.633Z,97150.25
2023-02-19T04:34:42.365Z,97159.81
2023-02-19T04:37:27.662Z,97151.88
2023-02-19T04:40:13.023Z,97144.97
2023-02-19T04:42:58.442Z,97141.31
2023-02-19T04:45:43.727Z,97128.56
2023-02-19T04:48:29.376Z,97138.09
2023-02-19T04:51:16.657Z,97141.75
2023-02-19T04:54:02.171Z,97132.00
2023-02-19T04:56:47.870Z,97135.28
2023-02-19T04:59:33.291Z,97144.47
2023-02-19T05:02:18.915Z,97142.41
2023-02-19T05:05:04.278Z,97144.81
2023-02-19T05:07:49.672Z,97145.66
2023-02-19T05:10:35.212Z,97158.41
2023-02-19T05:13:20.526Z,97156.38
2023-02-19T05:16:13.776Z,97157.16
2023-02-19T05:18:59.773Z,97171.56
2023-02-19T05:21:44.985Z,97165.22
2023-02-19T05:24:31.582Z,97164.22
2023-02-19T05:27:17.239Z,97167.69
2023-02-19T05:30:02.686Z,97172.97
2023-02-19T05:32:47.892Z,97169.28
2023-02-19T05:35:33.196Z,97168.47
2023-02-19T05:38:19.610Z,97168.47
2023-02-19T05:41:17.004Z,97179.03
2023-02-19T05:44:02.405Z,97175.81
2023-02-19T05:46:47.891Z,97177.66
2023-02-19T05:49:33.089Z,97180.28
2023-02-19T05:52:18.523Z,97190.06
2023-02-19T05:55:03.913Z,97184.78
2023-02-19T05:57:49.221Z,97193.72
2023-02-19T06:00:34.876Z,97186.81
2023-02-19T06:03:20.856Z,97188.44
2023-02-19T06:06:06.518Z,97194.53
2023-02-19T06:08:52.043Z,97189.25
2023-02-19T06:11:38.096Z,97185.34
2023-02-19T06:14:23.505Z,97193.28
2023-02-19T06:17:08.896Z,97204.28
2023-02-19T06:19:54.380Z,97212.41
2023-02-19T06:22:39.573Z,97221.41
2023-02-19T06:25:25.093Z,97217.34
2023-02-19T06:28:10.624Z,97216.97
2023-02-19T06:30:58.013Z,97215.56
2023-02-19T06:33:43.738Z,97218.41
2023-02-19T06:36:29.048Z,97234.50
2023-02-19T06:39:14.424Z,97230.84
2023-02-19T06:42:00.122Z,97229.59
2023-02-19T06:44:45.421Z,97229.97
2023-02-19T06:47:32.355Z,97228.94
2023-02-19T06:50:17.613Z,97230.75
2023-02-19T06:53:03.002Z,97226.31
2023-02-19T06:56:22.679Z,97238.50
2023-02-19T06:59:12.140Z,97230.72
2023-02-19T07:01:57.665Z,97244.50
2023-02-19T07:04:43.030Z,97249.38
2023-02-19T07:07:28.335Z,97249.97
2023-02-19T07:10:13.781Z,97239.16
2023-02-19T07:12:59.033Z,97251.94
2023-02-19T07:15:44.341Z,97236.44
2023-02-19T07:18:30.227Z,97256.16
2023-02-19T07:21:16.864Z,97247.75
2023-02-19T07:24:02.496Z,97256.91
2023-02-19T07:26:47.882Z,97243.69
2023-02-19T07:29:33.136Z,97251.00
2023-02-19T07:32:18.637Z,97253.88
2023-02-19T07:35:04.022Z,97265.09
2023-02-19T07:37:49.585Z,97252.53
2023-02-19T07:40:35.864Z,97254.78
2023-02-19T07:43:22.208Z,97261.09
2023-02-19T07:46:13.672Z,97254.78
2023-02-19T07:49:00.321Z,97252.75
2023-02-19T07:51:45.784Z,97274.50
2023-02-19T07:54:31.433Z,97270.81
2023-02-19T07:57:16.940Z,97280.34
2023-02-19T08:00:02.591Z,97271.84
2023-02-19T08:03:00.641Z,97278.72
2023-02-19T08:05:46.665Z,97279.34
2023-02-19T08:08:32.311Z,97280.31
2023-02-19T08:11:36.359Z,97277.00
2023-02-19T08:14:28.716Z,97286.50
2023-02-19T08:17:14.345Z,97281.78
2023-02-19T08:19:59.626Z,97285.25
2023-02-19T08:22:44.865Z,97286.88
2023-02-19T08:25:30.867Z,97294.56
2023-02-19T08:28:17.526Z,97300.44
2023-02-19T08:31:05.901Z,97302.28
2023-02-19T08:33:51.483Z,97306.16
2023-02-19T08:36:38.187Z,97312.84
2023-02-19T08:39:23.926Z,97321.38
2023-02-19T08:42:09.312Z,97320.72
2023-02-19T08:44:54.632Z,97331.47
2023-02-19T08:47:39.993Z,97329.22
2023-02-19T08:50:26.104Z,97308.06
2023-02-19T08:53:11.647Z,97307.19
2023-02-19T08:55:57.033Z,97324.81
2023-02-19T08:58:42.721Z,97311.31
2023-02-19T09:01:28.331Z,97316.97
2023-02-19T09:04:14.082Z,97321.00
2023-02-19T09:06:59.557Z,97312.03
2023-02-19T09:09:45.026Z,97318.94
2023-02-19T09:12:30.695Z,97314.81
2023-02-19T09:15:16.315Z,97327.03
2023-02-19T09:18:01.776Z,97331.44
2023-02-19T09:20:46.964Z,97330.31
2023-02-19T09:23:34.492Z,97321.72
2023-02-19T09:26:19.959Z,97344.72
2023-02-19T09:29:05.484Z,97345.53
2023-02-19T09:31:50.828Z,97339.06
2023-02-19T09:34:36.303Z,97349.72
2023-02-19T09:37:28.726Z,97346.13
2023-02-19T09:40:15.366Z,97363.03
2023-02-19T09:43:02.493Z,97362.59
2023-02-19T09:45:50.487Z,97374.22
2023-02-19T09:48:35.961Z,97378.56
2023-02-19T09:51:22.636Z,97379.63
2023-02-19T09:54:15.024Z,97386.03
2023-02-19T09:57:02.522Z,97383.44
2023-02-19T10:00:11.598Z,97386.38
2023-02-19T10:03:05.913Z,97380.50
2023-02-19T10:05:53.701Z,97385.16
2023-02-19T10:08:39.916Z,97387.41
2023-02-19T10:11:26.263Z,97392.69
2023-02-19T10:14:20.025Z,97403.66
2023-02-19T10:17:07.029Z,97408.72
2023-02-19T10:19:53.626Z,97406.41
2023-02-19T10:22:39.078Z,97415.88
2023-02-19T10:25:24.507Z,97411.75
2023-02-19T10:28:20.259Z,97414.41
2023-02-19T10:31:16.356Z,97400.81
2023-02-19T10:34:02.491Z,97417.50
2023-02-19T10:36:51.040Z,97408.53
2023-02-19T10:39:42.334Z,97418.53
2023-02-19T10:42:28.210Z,97416.91
2023-02-19T10:45:36.932Z,97430.94
2023-02-19T10:48:32.348Z,97425.63
2023-02-19T10:51:22.779Z,97437.03
2023-02-19T10:54:31.260Z,97439.47
2023-02-19T10:57:21.136Z,97427.63
2023-02-19T11:00:15.782Z,97430.06
2023-02-19T11:03:21.571Z,97436.97
2023-02-19T11:06:10.216Z,97440.00
2023-02-19T11:09:01.288Z,97438.16
2023-02-19T11:11:52.160Z,97448.31
2023-02-19T11:14:37.704Z,97442.59
2023-02-19T11:17:29.765Z,97440.09
2023-02-19T11:20:17.861Z,97434.72
2023-02-19T11:23:16.486Z,97430.75
2023-02-19T11:26:03.774Z,97433.13
2023-02-19T11:29:00.837Z,97434.06
2023-02-19T11:31:46.499Z,97424.28
2023-02-19T11:34:34.948Z,97419.19
2023-02-19T11:37:21.668Z,97431.41
2023-02-19T11:40:12.400Z,97431.28
2023-02-19T11:43:10.064Z,97432.38
2023-02-19T11:46:14.137Z,97440.84
2023-02-19T11:49:29.220Z,97433.97
2023-02-19T11:52:37.379Z,97433.03
2023-02-19T11:55:41.716Z,97447.94
2023-02-19T11:58:55.544Z,97451.81
2023-02-19T12:02:02.109Z,97452.91
2023-02-19T12:05:12.716Z,97461.56
2023-02-19T12:08:16.989Z,97460.44
2023-02-19T12:11:21.275Z,97460.06
2023-02-19T12:14:43.836Z,97465.81
2023-02-19T12:17:57.850Z,97474.84
2023-02-19T12:21:11.341Z,97471.00
2023-02-19T12:24:27.888Z,97476.72
2023-02-19T12:27:37.670Z,97486.47
2023-02-19T12:30:58.538Z,97482.16
2023-02-19T12:34:07.655Z,97486.59
2023-02-19T12:37:11.003Z,97487.81
2023-02-19T12:40:02.408Z,97484.72
2023-02-19T12:43:23.661Z,97506.25
2023-02-19T12:46:26.136Z,97508.25
2023-02-19T12:49:33.395Z,97522.66
2023-02-19T12:52:34.513Z,97517.22
2023-02-19T12:55:29.994Z,97526.22
2023-02-19T12:58:40.540Z,97518.16
2023-02-19T13:01:35.392Z,97509.91
2023-02-19T13:04:43.216Z,97503.88
2023-02-19T13:07:44.756Z,97493.56
2023-02-19T13:10:42.909Z,97499.69
2023-02-19T13:13:34.594Z,97510.84
2023-02-19T13:16:21.908Z,97518.94
2023-02-19T13:19:07.496Z,97519.75
2023-02-19T13:22:23.983Z,97518.91
2023-02-19T13:25:12.163Z,97528.63
2023-02-19T13:28:09.301Z,97530.06
2023-02-19T13:31:20.194Z,97534.56
2023-02-19T13:34:16.386Z,97542.72
2023-02-19T13:37:03.726Z,97537.69
2023-02-19T13:39:52.536Z,97542.59
2023-02-19T13:42:38.809Z,97559.50
2023-02-19T13:45:34.161Z,97558.50
2023-02-19T13:48:25.872Z,97554.03
2023-02-19T13:51:23.476Z,97541.69
2023-02-19T13:54:19.941Z,97552.44
2023-02-19T13:57:23.691Z,97548.41
2023-02-19T14:00:49.472Z,97546.38
2023-02-19T14:03:54.227Z,97559.78
2023-02-19T14:07:04.551Z,97558.16
2023-02-19T14:09:50.099Z,97560.97
2023-02-19T14:12:37.599Z,97572.34
2023-02-19T14:15:43.873Z,97575.38
2023-02-19T14:18:47.821Z,97574.78
2023-02-19T14:21:38.859Z,97579.22
2023-02-19T14:24:25.810Z,97585.53
2023-02-19T14:27:11.303Z,97593.84
2023-02-19T14:29:58.527Z,97604.78
2023-02-19T14:32:47.418Z,97592.63
2023-02-19T14:35:41.504Z,97602.78
2023-02-19T14:38:37.758Z,97613.13
2023-02-19T14:41:24.966Z,97616.56
2023-02-19T14:44:25.063Z,97619.41
2023-02-19T14:47:17.050Z,97620.41
2023-02-19T14:50:09.042Z,97616.13
2023-02-19T14:52:59.524Z,97622.25
2023-02-19T14:55:46.570Z,97617.78
2023-02-19T14:58:33.719Z,97628.09
2023-02-19T15:01:27.250Z,97625.88
2023-02-19T15:04:29.111Z,97636.06
2023-02-19T15:07:20.628Z,97643.38
2023-02-19T15:10:07.743Z,97639.72
2023-02-19T15:13:05.624Z,97639.72
2023-02-19T15:15:51.437Z,97648.44
2023-02-19T15:18:38.043Z,97655.34
2023-02-19T15:21:27.210Z,97664.06
2023-02-19T15:24:15.443Z,97667.53
2023-02-19T15:27:01.249Z,97662.44
2023-02-19T15:29:48.296Z,97676.25
2023-02-19T15:32:33.986Z,97671.75
2023-02-19T15:35:21.431Z,97666.09
2023-02-19T15:38:13.559Z,97671.56
2023-02-19T15:40:59.721Z,97671.38
2023-02-19T15:43:51.293Z,97673.41
2023-02-19T15:46:38.148Z,97670.13
2023-02-19T15:49:31.158Z,97685.34
2023-02-19T15:52:32.733Z,97696.94
2023-02-19T15:55:27.632Z,97694.47
2023-02-19T15:58:13.087Z,97701.56
2023-02-19T16:00:59.281Z,97697.31
2023-02-19T16:03:44.844Z,97695.88
2023-02-19T16:06:30.648Z,97703.00
2023-02-19T16:09:37.915Z,97710.91
2023-02-19T16:12:25.123Z,97716.19
2023-02-19T16:15:14.299Z,97710.28
2023-02-19T16:17:59.914Z,97715.56
2023-02-19T16:20:47.977Z,97721.84
2023-02-19T16:23:33.660Z,97724.47
2023-02-19T16:26:19.281Z,97722.84
2023-02-19T16:29:04.776Z,97723.25
2023-02-19T16:31:53.389Z,97729.53
2023-02-19T16:34:46.890Z,97736.59
2023-02-19T16:37:33.468Z,97744.34
2023-02-19T16:40:19.203Z,97746.34
2023-02-19T16:43:04.439Z,97754.25
2023-02-19T16:45:50.005Z,97761.38
2023-02-19T16:48:35.662Z,97756.47
2023-02-19T16:51:26.557Z,97758.50
2023-02-19T16:54:13.139Z,97771.25
2023-02-19T16:56:58.598Z,97768.19
2023-02-19T16:59:43.994Z,97754.59
2023-02-19T17:02:29.843Z,97754.19
2023-02-19T17:05:17.072Z,97768.16
2023-02-19T17:08:21.436Z,97768.88
2023-02-19T17:11:12.635Z,97783.09
2023-02-19T17:13:58.498Z,97783.28
2023-02-19T17:16:43.975Z,97781.03
2023-02-19T17:19:29.196Z,97772.69
2023-02-19T17:22:16.988Z,97781.19
2023-02-19T17:25:02.932Z,97788.84
2023-02-19T17:27:48.395Z,97799.97
2023-02-19T17:30:34.127Z,97807.22
2023-02-19T17:33:19.479Z,97809.25
2023-02-19T17:36:05.320Z,97820.97
2023-02-19T17:38:50.691Z,97829.88
2023-02-19T17:41:36.500Z,97831.69
2023-02-19T17:44:21.668Z,97840.00
2023-02-19T17:47:07.021Z,97837.38
2023-02-19T17:49:52.614Z,97846.94
2023-02-19T17:52:38.121Z,97849.38
2023-02-19T17:55:25.344Z,97848.81
2023-02-19T17:58:10.847Z,97853.09
2023-02-19T18:00:56.515Z,97860.00
2023-02-19T18:03:42.466Z,97861.00
2023-02-19T18:06:28.236Z,97863.00
2023-02-19T18:09:15.348Z,97872.53
2023-02-19T18:12:00.586Z,97886.34
2023-02-19T18:14:46.816Z,97890.22
2023-02-19T18:17:32.582Z,97890.22
2023-02-19T18:20:23.928Z,97888.41
2023-02-19T18:23:09.429Z,97900.75
2023-02-19T18:25:54.899Z,97899.31
2023-02-19T18:28:40.296Z,97899.31
2023-02-19T18:31:26.025Z,97899.72
2023-02-19T18:34:18.355Z,97899.88
2023-02-19T18:37:04.032Z,97900.91
2023-02-19T18:39:49.695Z,97907.53
2023-02-19T18:42:35.503Z,97906.88
2023-02-19T18:45:21.102Z,97912.16
2023-02-19T18:48:06.979Z,97909.72
2023-02-19T18:50:52.369Z,97908.91
2023-02-19T18:53:38.077Z,97908.25
2023-02-19T18:56:23.766Z,97915.38
2023-02-19T18:59:09.699Z,97920.81
2023-02-19T19:01:55.007Z,97925.25
2023-02-19T19:04:41.467Z,97933.16
2023-02-19T19:07:26.976Z,97934.16
2023-02-19T19:10:12.444Z,97942.91
2023-02-19T19:12:58.564Z,97934.16
2023-02-19T19:15:49.271Z,97937.63
2023-02-19T19:18:38.170Z,97935.00
2023-02-19T19:21:24.105Z,97939.63
2023-02-19T19:24:09.960Z,97933.91
2023-02-19T19:26:55.763Z,97942.38
2023-02-19T19:29:41.501Z,97950.81
2023-02-19T19:32:26.868Z,97950.81
2023-02-19T19:35:12.541Z,97947.75
2023-02-19T19:37:58.150Z,97941.88
2023-02-19T19:40:43.603Z,97943.88
2023-02-19T19:43:30.695Z,97946.50
2023-02-19T19:46:20.076Z,97949.78
2023-02-19T19:49:05.634Z,97943.88
2023-02-19T19:51:51.109Z,97945.69
2023-02-19T19:54:36.338Z,97949.13
2023-02-19T19:57:21.687Z,97950.78
2023-02-19T20:00:07.717Z,97952.56
2023-02-19T20:02:57.754Z,97964.94
2023-02-19T20:05:45.858Z,97964.13
2023-02-19T20:08:31.184Z,97964.94
2023-02-19T20:11:16.479Z,97969.19
2023-02-19T20:14:01.871Z,97966.56
2023-02-19T20:16:47.724Z,97965.56
2023-02-19T20:19:33.341Z,97967.38
2023-02-19T20:22:19.564Z,97967.38
2023-02-19T20:25:05.266Z,97968.22
2023-02-19T20:27:52.386Z,97952.41
2023-02-19T20:30:37.915Z,97955.03
2023-02-19T20:33:23.716Z,97949.13
2023-02-19T20:36:09.408Z,97943.06
2023-02-19T20:38:56.164Z,97943.88
2023-02-19T20:41:49.022Z,97953.59
2023-02-19T20:44:34.952Z,97951.97
2023-02-19T20:47:20.370Z,97960.66
2023-02-19T20:50:07.062Z,97964.75
2023-02-19T20:52:55.809Z,97953.22
2023-02-19T20:55:41.606Z,97959.31
2023-02-19T20:58:27.132Z,97964.19
2023-02-19T21:01:12.552Z,97955.28
2023-02-19T21:03:58.143Z,97968.06
2023-02-19T21:06:43.709Z,97960.81
2023-02-19T21:09:29.028Z,97961.44
2023-02-19T21:12:14.438Z,97968.34
2023-02-19T21:14:59.776Z,97973.44
2023-02-19T21:17:46.644Z,97974.22
2023-02-19T21:20:32.419Z,97975.88
2023-02-19T21:23:18.330Z,97967.16
2023-02-19T21:26:04.668Z,97971.25
2023-02-19T21:28:54.010Z,97972.88
2023-02-19T21:31:42.671Z,97977.94
2023-02-19T21:34:29.539Z,97979.78
2023-02-19T21:37:15.171Z,97985.66
2023-02-19T21:40:00.854Z,97980.38
2023-02-19T21:42:46.305Z,97981.38
2023-02-19T21:45:31.739Z,97980.38
2023-02-19T21:48:17.103Z,97984.03
2023-02-19T21:51:03.956Z,97977.75
2023-02-19T21:53:49.436Z,97981.03
2023-02-19T21:56:36.521Z,97967.06
2023-02-19T21:59:22.704Z,97973.94
2023-02-19T22:02:09.456Z,97975.56
2023-02-19T22:04:55.184Z,97973.56
2023-02-19T22:07:40.701Z,97970.56
2023-02-19T22:10:25.994Z,97973.84
2023-02-19T22:13:11.320Z,97970.84
2023-02-19T22:15:56.704Z,97986.47
2023-02-19T22:18:49.667Z,97983.00
2023-02-19T22:21:35.494Z,97987.28
2023-02-19T22:24:22.487Z,97991.75
2023-02-19T22:27:08.383Z,97990.75
2023-02-19T22:29:54.241Z,98002.09
2023-02-19T22:32:40.750Z,97998.44
2023-02-19T22:35:27.084Z,97996.63
2023-02-19T22:38:12.498Z,98000.28
2023-02-19T22:40:58.004Z,98010.63
2023-02-19T22:43:44.250Z,98016.69
2023-02-19T22:46:30.623Z,98005.16
2023-02-19T22:49:16.820Z,98007.44
2023-02-19T22:52:05.597Z,98009.03
2023-02-19T22:54:52.514Z,98002.59
2023-02-19T22:57:38.016Z,97996.31
2023-02-19T23:00:23.534Z,97995.16
2023-02-19T23:03:09.004Z,97997.78
2023-02-19T23:05:54.402Z,97992.31
2023-02-19T23:08:39.818Z,97991.47
2023-02-19T23:11:31.210Z,97984.22
2023-02-19T23:14:18.703Z,97984.22
2023-02-19T23:17:04.524Z,97976.09
2023-02-19T23:19:50.172Z,97984.84
2023-02-19T23:22:36.936Z,97983.84
2023-02-19T23:25:22.792Z,97982.81
2023-02-19T23:28:08.214Z,97991.38
2023-02-19T23:30:53.698Z,97982.25
2023-02-19T23:33:39.246Z,97979.25
2023-02-19T23:36:24.860Z,97982.50
2023-02-19T23:39:12.012Z,97982.13
2023-02-19T23:41:58.046Z,97988.03
2023-02-19T23:44:46.788Z,97976.31
2023-02-19T23:47:32.555Z,97983.66
2023-02-19T23:50:18.228Z,97966.63
2023-02-19T23:53:04.071Z,97975.97
2023-02-19T23:55:49.410Z,97986.97
2023-02-19T23:58:34.735Z,97970.75
